Tiempo atmosférico en la estación meteorológica de Almería Aeropuerto, Almería (21 m.)



Fecha
DESCASC
Temp. máxima en grados centígrados (hora)
DESCASC
Temp. mínima en grados centígrados (hora)
DESCASC
Temp. media en grados centígrados
DESCASC
Racha de viento máxima en m/sg (hora)
DESCASC
Velocidad máxima media en intervalos de 10 minutos(hora)
DESCASC
Precipitaciones diarias en mm
DESCASC
Precipitaciones de 00:00 a 06:00 en mm
DESCASC
Precipitaciones de 06:00 a 12:00 en mm
DESCASC
Precipitaciones de 12:00 a 18:00 en mm
DESCASC
Precipitaciones de 18:00 a 24:00 en mm
DESCASC
15-08-2019 32.7 (15:40) 22.6 (07:10) 27.7 6.67 (16:20) 4.72 (16:20) 0 0 0 0 0
14-08-2019 31 (11:40) 23.3 (00:00) 27.1 7.78 (14:30) 5.83 (14:40) 0 0 0 0 0
13-08-2019 33.4 (13:20) 25.1 (00:00) 29.3 15.28 (15:00) 11.11 (15:00) 0 0 0 0 0
12-08-2019 29.5 (18:20) 20.8 (00:00) 25.1 7.22 (22:20) 5 (22:20) 0 0 0 0 0
11-08-2019 27.4 (16:50) 22.9 (00:00) 25.1 5.83 (06:00) 4.17 (15:40) 0 0 0 0 0
10-08-2019 31 (16:20) 21.2 (00:00) 26.1 6.11 (16:50) 4.72 (13:50) 0 0 0 0 0
09-08-2019 28 (17:50) 21 (00:00) 24.5 8.33 (13:40) 5.56 (13:40) 0 0 0 0 0
08-08-2019 32.2 (19:20) 21.5 (00:00) 26.9 4.72 (12:50) 3.61 (15:00) 0 0 0 0 0
07-08-2019 29.3 (18:00) 22.6 (00:00) 25.9 8.89 (07:50) 5.56 (07:50) 0 0 0 0 0
06-08-2019 29.1 (17:40) 23.9 (00:00) 26.5 7.22 (04:40) 5 (05:00) 0 0 0 0 0
05-08-2019 29.3 (14:20) 23.4 (00:00) 26.3 7.78 (03:30) 4.44 (03:40) 0 0 0 0 0
04-08-2019 28.8 (18:00) 24.4 (00:00) 26.6 5.83 (05:20) 4.17 (15:20) 0 0 0 0 0
03-08-2019 29.3 (12:30) 23.2 (00:00) 26.3 7.22 (13:10) 5.56 (16:30) 0 0 0 0 0
02-08-2019 28.6 (15:50) 22.9 (00:00) 25.8 6.11 (17:00) 4.72 (13:50) 0 0 0 0 0
01-08-2019 31.8 (12:10) 23.8 (00:00) 27.8 10.83 (02:00) 7.22 (12:40) 0 0 0 0 0
31-07-2019 35.1 (17:10) 25.6 (00:00) 30.3 19.72 (12:30) 13.89 (09:30) 0 0 0 0 0
30-07-2019 28 (20:00) 14.1 (00:00) 21.1 9.17 (22:20) 6.67 (23:30) 0 0 0 0 0
29-07-2019 26.1 (12:40) 20.4 (00:00) 23.3 6.11 (13:00) 4.72 (13:10) 0 0 0 0 0
28-07-2019 26.5 (18:30) 20.9 (00:00) 23.7 6.67 (12:40) 4.44 (12:00) 0 0 0 0 0
27-07-2019 28.7 (17:20) 21.2 (00:00) 25 18.89 (18:00) 13.89 (18:40) 0 0 0 0 0
26-07-2019 29.3 (18:40) 23 (00:00) 26.1 18.61 (20:20) 13.89 (19:00) 0 0 0 0 0
25-07-2019 31.5 (14:50) 23.3 (00:00) 27.4 7.22 (05:00) 5.28 (15:50) 0 0 0 0 0
24-07-2019 35.7 (19:30) 24.9 (00:00) 30.3 10.83 (08:40) 7.22 (19:40) 0 0 0 0 0
23-07-2019 40.5 (17:00) 25 (00:00) 32.8 15.28 (15:10) 11.67 (14:00) 0 0 0 0 0
22-07-2019 36.7 (15:40) 24 (00:00) 30.4 18.61 (20:00) 14.17 (20:20) 0 0 0 0 0
21-07-2019 33.1 (19:10) 23.1 (00:00) 28.1 13.89 (19:30) 10.28 (19:30) 0 0 0 0 0
20-07-2019 30.1 (04:10) 23.8 (00:00) 26.9 11.39 (03:50) 7.22 (04:20) 0 0 0 0 0
19-07-2019 37.2 (14:20) 22 (00:00) 29.6 16.94 (20:20) 12.5 (16:50) 0 0 0 0 0

Gráficas

Temp. máximas Temp. mínimas Temp. medias Precipitaciones Rachas de viento máximas Velocidades máximas media en intervalos de 10 minutos

Datos horarios

Fecha y hora oficial Temperatura (ºC) Velocidad del viento (km/h) Dirección del viento Racha (km/h) Dirección de racha Precipitación (mm) Presión (hPa) Tendencia (hPa) Humedad (%)
2019-08-17 23:00:00 26.2 3 Oeste 11 Oeste 0 1010.6 0.9 88
2019-08-17 22:00:00 26.2 0 Calma 9 Sudoeste 0 1010.1 -0.2 89
2019-08-17 21:00:00 26.9 3 Sudoeste 11 Sudoeste 0 1009.5 -1.3 87
2019-08-17 20:00:00 27.9 8 Sudoeste 17 Sur 0 1009.7 -1.5 82
2019-08-17 19:00:00 28.5 12 Sudoeste 18 Sudoeste 0 1010.3 -1.4 80
2019-08-17 18:00:00 29.1 13 Sur 21 Sudoeste 0 1010.8 -1.7 77
2019-08-17 17:00:00 29.3 14 Sur 21 Sudoeste 0 1011.2 -1.8 76
2019-08-17 16:00:00 29.2 13 Sudoeste 21 Sur 0 1011.7 -1.5 75
2019-08-17 15:00:00 29.3 14 Sur 21 Sudoeste 0 1012.5 -1 75
2019-08-17 14:00:00 29 15 Sudoeste 22 Sudoeste 0 1013 -0.8 76
2019-08-17 13:00:00 28.5 14 Sur 21 Sur 0 1013.2 -0.4 77
2019-08-17 12:00:00 27.6 11 Sur 15 Sur 0 1013.5 0.4 80
2019-08-17 11:00:00 27.2 11 Sur 17 Sur 0 1013.8 0.9 82
2019-08-17 10:00:00 27.7 9 Sudeste 11 Sudeste 0 1013.6 1 65
2019-08-17 09:00:00 26.1 3 Sur 13 Norte 0 1013.1 0.6 78
2019-08-17 08:00:00 23.1 -- -- -- -- 0 1012.9 0.2 85
2019-08-17 07:00:00 23.3 5 Este 5 Este 0 1012.6 -0.5 87
2019-08-17 06:00:00 23.8 2 Noroeste 8 Norte 0 1012.5 -1.1 87
2019-08-17 05:00:00 24.4 6 Norte 9 Norte 0 1012.7 -1.3 87
2019-08-17 04:00:00 24.5 6 Nordeste 9 Nordeste 0 1013.1 -1.1 86
2019-08-17 03:00:00 24.8 5 Nordeste 8 Este 0 1013.6 -0.4 86
2019-08-17 02:00:00 25.3 4 Noroeste 11 Sudoeste 0 1014 0.2 90
2019-08-17 01:00:00 25.5 8 Sudoeste 9 Sudoeste 0 1014.2 0.9 90
2019-08-17 00:00:00 25.7 8 Sudoeste 11 Sudoeste 0 1014 1.2 89
2019-08-16 23:00:00 26 6 Oeste 15 Oeste 0 1013.8 1.3 87
2019-08-16 22:00:00 26.5 10 Oeste 15 Oeste 0 1013.3 0.7 82
2019-08-16 21:00:00 27.3 9 Sudoeste 15 Sudoeste 0 1012.8 -0.2 81
2019-08-16 20:00:00 28.5 12 Sudoeste 18 Sudoeste 0 1012.5 -0.8 75
2019-08-16 19:00:00 29.2 12 Sur 15 Sur 0 1012.6 -1.1 72
2019-08-16 18:00:00 30.3 11 Sudoeste 18 Sudoeste 0 1013 -1 59
2019-08-16 17:00:00 30.9 15 Sur 22 Sudoeste 0 1013.3 -1 66
2019-08-16 16:00:00 31.5 14 Sur 22 Sudoeste 0 1013.7 -0.9 63
2019-08-16 15:00:00 32.2 12 Sudoeste 18 Sur 0 1014 -1 50
2019-08-16 14:00:00 31.1 13 Sudoeste 24 Sudoeste 0 1014.3 -0.7 61
2019-08-16 13:00:00 30.4 18 Sudoeste 22 Sudoeste 0 1014.6 -0.5 54
2019-08-16 12:00:00 30 14 Sur 28 Este 0 1015 -0.1 56
2019-08-16 11:00:00 32.8 18 Este 28 Este 0 1015 0.3 26
2019-08-16 10:00:00 29.5 6 Norte 11 Norte 0 1015.1 0.8 40
2019-08-16 09:00:00 26.6 4 Oeste 18 Norte 0 1015.1 1 50
2019-08-16 08:00:00 24.7 11 Norte 15 Norte 0 1014.7 0.7 53
2019-08-16 07:00:00 23.3 2 Norte 5 Nordeste 0 1014.3 0.3 61
2019-08-16 06:00:00 23.5 0 Calma 11 Norte 0 1014.1 -0.1 61
2019-08-16 05:00:00 24.1 8 Norte 11 Norte 0 1014 -0.5 57
2019-08-16 04:00:00 24.5 6 Norte 11 Noroeste 0 1014 -0.6 59
2019-08-16 03:00:00 25.1 10 Norte 11 Norte 0 1014.2 -0.4 58
2019-08-16 02:00:00 26.1 8 Nordeste 13 Norte 0 1014.5 -0.1 62
2019-08-16 01:00:00 26.7 6 Nordeste 13 Nordeste 0 1014.6 0.7 49
2019-08-16 00:00:00 27.3 11 Nordeste 17 Nordeste 0 1014.6 1 50
2019-08-15 23:00:00 28 8 Nordeste 13 Nordeste 0 1014.6 1.3 48
2019-08-15 22:00:00 28.5 4 Noroeste 9 Oeste 0 1013.9 0.5 45
2019-08-15 21:00:00 29.1 9 Oeste 15 Sudoeste 0 1013.6 0.1 46
2019-08-15 20:00:00 29.9 9 Sudoeste 15 Sudoeste 0 1013.3 -0.5 52
2019-08-15 19:00:00 30.5 12 Sudoeste 21 Sudoeste 0 1013.4 -0.7 54
2019-08-15 18:00:00 31.4 12 Sudoeste 24 Sur 0 1013.5 -0.8 49
2019-08-15 17:00:00 31.4 16 Sur 24 Sur 0 1013.8 -0.9 55
2019-08-15 16:00:00 32 15 Sur 22 Sur 0 1014.1 -1 53
2019-08-15 15:00:00 31.9 16 Sur 22 Sur 0 1014.3 -0.9 54
2019-08-15 14:00:00 30.2 14 Sudoeste 21 Sudoeste 0 1014.7 -0.5 66
2019-08-15 13:00:00 29.5 14 Sudoeste 21 Sudoeste 0 1015.1 -0.1 67
2019-08-15 12:00:00 29.6 14 Sur 18 Sur 0 1015.2 0.1 61
2019-08-15 11:00:00 30.3 8 Sudoeste 13 Sudoeste 0 1015.2 0.3 52
2019-08-15 10:00:00 28.5 4 Sudoeste 9 Sudoeste 0 1015.2 0.4 61
2019-08-15 09:00:00 26.4 2 Sudoeste 17 Noroeste 0 1015.1 0.5 67
2019-08-15 08:00:00 23.4 9 Norte 11 Nordeste 0 1014.9 0.4 82
2019-08-15 07:00:00 22.9 5 Este 9 Este 0 1014.8 0 84
2019-08-15 06:00:00 23.7 6 Norte 9 Noroeste 0 1014.6 -0.3 85
2019-08-15 05:00:00 23.6 5 Norte 8 Norte 0 1014.5 -0.7 88
2019-08-15 04:00:00 23.7 4 Este 9 Este 0 1014.8 -0.6 85
2019-08-15 03:00:00 24.1 6 Este 11 Este 0 1014.9 -0.5 84
2019-08-15 02:00:00 24.8 3 Norte 8 Oeste 0 1015.2 -0.2 85
2019-08-15 01:00:00 25.2 6 Oeste 15 Oeste 0 1015.4 0.7 85
2019-08-15 00:00:00 25.6 8 Sudoeste 11 Sudoeste 0 1015.4 1.1 81
2019-08-14 23:00:00 25.9 5 Noroeste 9 Oeste 0 1015.4 1.3 79
2019-08-14 22:00:00 25.8 4 Oeste 13 Sudoeste 0 1014.7 0.3 83
2019-08-14 21:00:00 25.8 9 Sudoeste 13 Sudoeste 0 1014.3 -0.2 84
2019-08-14 20:00:00 26.9 10 Sudoeste 15 Sudoeste 0 1014.1 -0.6 79
2019-08-14 19:00:00 27.8 11 Sudoeste 21 Sudoeste 0 1014.4 -0.7 75
2019-08-14 18:00:00 28.1 15 Sudoeste 22 Sudoeste 0 1014.5 -1.2 75
2019-08-14 17:00:00 29.4 15 Sur 22 Sur 0 1014.7 -1.5 69
2019-08-14 16:00:00 29.7 16 Sur 24 Sur 0 1015.1 -1.5 69
2019-08-14 15:00:00 29.5 19 Sur 28 Sur 0 1015.7 -1 69
2019-08-14 14:00:00 29.9 19 Sur 26 Sur 0 1016.2 -0.5 68
2019-08-14 13:00:00 29.7 18 Sur 24 Sur 0 1016.6 -0.3 67
2019-08-14 12:00:00 29.8 14 Sur 24 Este 0 1016.7 -0.2 64
2019-08-14 11:00:00 29.7 13 Este 24 Este 0 1016.7 0.1 58
2019-08-14 10:00:00 28.1 11 Este 18 Este 0 1016.9 0.6 65
2019-08-14 09:00:00 26.1 10 Norte 13 Norte 0 1016.9 1 73
2019-08-14 08:00:00 23.7 7 Norte 11 Norte 0 1016.6 1 81
2019-08-14 07:00:00 23.5 5 Norte 9 Nordeste 0 1016.3 0.5 81
2019-08-14 06:00:00 23.5 4 Este -- -- 0 1015.9 0 81
2019-08-14 05:00:00 24.4 4 Nordeste 15 Nordeste 0 1015.6 -0.4 78
2019-08-14 04:00:00 25 10 Nordeste 21 Nordeste 0 1015.8 -0.2 76
2019-08-14 03:00:00 25.1 12 Nordeste 17 Nordeste 0 1015.9 0.1 78
2019-08-14 02:00:00 25.3 10 Nordeste 18 Este 0 1016 0.5 78
2019-08-14 01:00:00 25.7 12 Este 26 Este 0 1016 1 78
2019-08-14 00:00:00 26 20 Nordeste 30 Este 0 1015.8 1.6 78
2019-08-13 23:00:00 26.4 15 Este 26 Este 0 1015.5 1.8 76
2019-08-13 22:00:00 26.9 22 Nordeste 30 Este 0 1015 1.6 73
2019-08-13 21:00:00 27.9 22 Este 32 Este 0 1014.2 0.8 69
2019-08-13 20:00:00 29.3 24 Este 35 Este 0 1013.7 0.4 64
2019-08-13 19:00:00 30.7 25 Este 41 Este 0 1013.4 0 59
2019-08-13 18:00:00 31.4 27 Este -- -- -- 1013.4 -0.1 57
2019-08-13 17:00:00 32.1 30 Este 48 Este 0 1013.3 -0.3 54
2019-08-13 16:00:00 32.9 31 Este 54 Este 0 1013.4 -0.1 52
2019-08-13 15:00:00 33 40 Este 55 Este 0 1013.5 -0.1 51
2019-08-13 14:00:00 33.1 39 Este 54 Este 0 1013.6 0 49
2019-08-13 13:00:00 32.8 33 Este 48 Este 0 1013.5 -0.1 48
2019-08-13 12:00:00 32.2 33 Este 45 Este 0 1013.6 0.1 46
2019-08-13 11:00:00 31.4 28 Este 37 Este 0 1013.6 0.4 50
2019-08-13 10:00:00 30.1 19 Nordeste 37 Nordeste 0 1013.6 0.6 55
2019-08-13 09:00:00 27.2 10 Norte 17 Norte 0 1013.5 0.8 65
2019-08-13 08:00:00 25.3 10 Norte 15 Noroeste 0 1013.2 0.9 71
2019-08-13 07:00:00 25.3 8 Norte 13 Noroeste 0 1013 0.5 74
2019-08-13 06:00:00 25.4 6 Norte 13 Nordeste 0 1012.7 -0.4 73
2019-08-13 05:00:00 25.8 10 Norte 21 Noroeste 0 1012.3 -1.4 72
2019-08-13 04:00:00 25.9 12 Norte 18 Noroeste 0 1012.5 -1.5 72
2019-08-13 03:00:00 26.1 9 Norte 15 Norte 0 1013.1 -0.7 74
2019-08-13 02:00:00 26.6 11 Norte 17 Norte 0 1013.7 0.4 73
2019-08-13 01:00:00 26.4 10 Nordeste 21 Nordeste 0 1014 1.7 80
2019-08-13 00:00:00 26.8 16 Nordeste 26 Este 0 1013.8 2.3 79
2019-08-12 23:00:00 27.3 18 Nordeste 26 Nordeste 0 1013.3 2.7 75
2019-08-12 22:00:00 27.8 12 Este 18 Sudeste 0 1012.3 2.1 68
2019-08-12 21:00:00 26.8 5 Sudoeste 11 Sudoeste 0 1011.5 0.7 70
2019-08-12 20:00:00 27.7 5 Sur 13 Sur 0 1010.6 -0.5 61
2019-08-12 19:00:00 28.5 11 Sudoeste 15 Sudoeste 0 1010.2 -1.1 55
2019-08-12 18:00:00 28.3 5 Sudoeste 17 Sur 0 1010.8 -0.8 52
2019-08-12 17:00:00 27.9 7 Sudoeste 15 Sudoeste 0 1011.1 -0.9 53
2019-08-12 16:00:00 28.6 9 Sur 15 Sudoeste 0 1011.3 -0.7 53
2019-08-12 15:00:00 27.6 11 Sur 17 Sur 0 1011.6 -0.2 62
2019-08-12 14:00:00 27.2 9 Sur 17 Sur 0 1012 1 69
2019-08-12 13:00:00 26.5 10 Sur 15 Sur 0 1012 1.5 72
2019-08-12 12:00:00 26.3 9 Sur 15 Sur 0 1011.8 1.6 75
2019-08-12 11:00:00 25.7 9 Sur 15 Sur 0 1011 1.3 77
2019-08-12 10:00:00 25.9 8 Sur 11 Sur 0 1010.5 1.2 72
2019-08-12 09:00:00 24.2 8 Este 11 Este 0 1010.2 1.2 72
2019-08-12 08:00:00 21.4 5 Norte 13 Norte 0 1009.7 1 86
2019-08-12 07:00:00 21 6 Este 9 Este 0 1009.3 0.1 86
2019-08-12 06:00:00 21.2 4 Norte 8 Sudeste 0 1009 -0.9 86
2019-08-12 05:00:00 21.6 6 Este 13 Sudeste 0 1008.7 -1.9 87
2019-08-12 04:00:00 22.2 0 Calma 8 Norte 0 1009.2 -1.4 83
2019-08-12 03:00:00 22.4 0 Calma 8 Nordeste 0 1009.9 -1 83
2019-08-12 02:00:00 22.5 0 Calma 8 Este 0 1010.6 -0.3 83
2019-08-12 01:00:00 22.8 0 Calma 8 Norte 0 1010.6 0.2 83
2019-08-12 00:00:00 23.2 0 Calma 8 Este 0 1010.9 1.6 82
2019-08-11 23:00:00 23.6 4 Sudeste 11 Sur 0 1010.9 2 81
2019-08-11 22:00:00 23.8 6 Sur 11 Sur 0 1010.4 1.8 80
2019-08-11 21:00:00 24.2 9 Sur 13 Sur 0 1009.3 0.5 77
2019-08-11 20:00:00 24.5 10 Sur 18 Sudoeste 0 1008.9 -0.7 75
2019-08-11 19:00:00 24.9 12 Sudoeste 18 Sudoeste 0 1008.6 -2.1 73
2019-08-11 18:00:00 25.7 11 Sudoeste 21 Sur 0 1008.8 -2.2 72
2019-08-11 17:00:00 26.3 13 Sur 21 Sur 0 1009.6 -1.9 70
2019-08-11 16:00:00 26.4 13 Sur 21 Sur 0 1010.7 -0.9 71
2019-08-11 15:00:00 26.5 11 Sur 18 Sur 0 1011 -0.9 69
2019-08-11 14:00:00 26.2 13 Sur 18 Sur 0 1011.5 0 75
2019-08-11 13:00:00 25.9 11 Sur 21 Sur 0 1011.6 0.1 76
2019-08-11 12:00:00 26 14 Sur 18 Sudoeste 0 1011.9 1.1 74
2019-08-11 11:00:00 25.6 9 Sur 15 Sudoeste 0 1011.5 0.9 77
2019-08-11 10:00:00 24.4 10 Sur 15 Sur 0 1011.5 1 85
2019-08-11 09:00:00 23.9 7 Este 11 Sudeste 0 1010.8 0.9 90
2019-08-11 08:00:00 22.9 0 Calma 8 Sudoeste 0 1010.6 0.9 93
2019-08-11 07:00:00 23.1 0 Calma 17 Sudeste 0 1010.5 -0.3 92
2019-08-11 06:00:00 23.8 14 Sudeste 21 Sudeste 0 1009.9 -1.6 90
2019-08-11 05:00:00 24 9 Oeste 15 Oeste 0 1009.7 -1.7 86
2019-08-11 04:00:00 23.3 6 Oeste 17 Oeste 0 1010.8 -1.5 92
2019-08-11 03:00:00 23.4 9 Sudoeste 17 Sudeste 0 1011.5 -1.5 87
2019-08-11 02:00:00 23.5 10 Sudeste 15 Sudeste 0 1011.4 -1.7 87
2019-08-11 01:00:00 23.5 4 Este 9 Sudeste 0 1012.3 -0.2 88
2019-08-11 00:00:00 23.7 4 Sudoeste 8 Sur 0 1013 1.5 88
2019-08-10 23:00:00 23.6 3 Noroeste 11 Sur 0 1013.1 2.4 88
2019-08-10 22:00:00 23.9 9 Sudeste 18 Sudeste 0 1012.5 2 87
2019-08-10 21:00:00 24.4 14 Sudeste 18 Sudeste 0 1011.5 0.7 86
2019-08-10 20:00:00 25.7 12 Sudeste 21 Sudeste 0 1010.7 -0.5 80
2019-08-10 19:00:00 26.5 15 Sudeste 21 Sudeste 0 1010.5 -1.4 76
2019-08-10 18:00:00 27.1 13 Sudeste 22 Sudeste 0 1010.8 -1.9 74
2019-08-10 17:00:00 27.8 14 Sudeste 22 Sudeste 0 1011.2 -2 71
2019-08-10 16:00:00 29.9 10 Sudeste 17 Sudeste 0 1011.9 -1.5 59
2019-08-10 15:00:00 27.9 10 Sur 18 Sudoeste 0 1012.7 -1.4 68
2019-08-10 14:00:00 27 14 Sudoeste 21 Sur 0 1013.2 -0.9 75
2019-08-10 13:00:00 27.2 10 Sur 15 Sur 0 1013.4 -0.2 73
2019-08-10 12:00:00 26 10 Sudoeste 17 Sur 0 1014.1 0.8 78
2019-08-10 11:00:00 24.9 12 Sur 17 Sur 0 1014.1 2.6 82
2019-08-10 10:00:00 25 5 Este 17 Sudoeste 0 1013.6 2.5 83
2019-08-10 09:00:00 23.7 8 Sur 21 Sudeste 0 1013.3 2.1 89
2019-08-10 08:00:00 21.9 5 Sur 13 Nordeste 0 1011.5 0 89
2019-08-10 07:00:00 21.6 12 Nordeste 15 Nordeste 0 1011.1 -0.2 95
2019-08-10 06:00:00 22 5 Este 11 Oeste 0 1011.2 -0.7 93
2019-08-10 05:00:00 22.5 5 Sudoeste 8 Sudoeste 0 1011.5 -0.3 93
2019-08-10 04:00:00 22.8 4 Norte 11 Norte 0 1011.3 -0.7 93
2019-08-10 03:00:00 23 10 Sudoeste 15 Sur 0 1011.9 0.2 93
2019-08-10 02:00:00 23.2 0 Calma 11 Sudoeste 0 1011.8 0.6 89
2019-08-10 01:00:00 23.5 9 Sudoeste 17 Sudoeste 0 1012 1.6 90
2019-08-10 00:00:00 23.6 12 Sur 17 Sur 0 1011.7 2 89
2019-08-09 23:00:00 24.7 0 Calma 17 Sur 0 1011.2 2.1 85
2019-08-09 22:00:00 24.5 10 Sur 17 Sudoeste 0 1010.4 1.1 86
2019-08-09 21:00:00 25.2 7 Sur 17 Este 0 1009.7 0.1 79
2019-08-09 20:00:00 26.6 10 Sudeste 15 Sudeste 0 1009.1 -1 72
2019-08-09 19:00:00 26.9 10 Sudeste 21 Este 0 1009.3 -1.7 73
2019-08-09 18:00:00 27.6 12 Sudeste 21 Sudeste 0 1009.6 -2.1 70
2019-08-09 17:00:00 27.6 12 Sur 18 Sudeste 0 1010.1 -2 70
2019-08-09 16:00:00 27.5 13 Sur 18 Sur 0 1011 -1.1 70
2019-08-09 15:00:00 27.2 10 Sur 22 Sudoeste 0 1011.7 -0.3 74
2019-08-09 14:00:00 27 17 Sur 30 Sudoeste 0 1012.1 0.2 73
2019-08-09 13:00:00 26.9 14 Sur 21 Sur 0 1012.1 0.6 76
2019-08-09 12:00:00 26 11 Sur 21 Sudoeste 0 1012 0.9 81
2019-08-09 11:00:00 25.9 15 Sudoeste 18 Sudoeste 0 1011.9 1.1 79
2019-08-09 10:00:00 24.7 9 Sur 15 Sur 0 1011.5 0.7 88
2019-08-09 09:00:00 23.4 4 Sudeste 9 Norte 0 1011.1 0.1 93
2019-08-09 08:00:00 21.4 4 Nordeste 9 Nordeste 0 1010.8 -0.4 97
2019-08-09 07:00:00 21.9 7 Nordeste 11 Nordeste 0 1010.8 -0.2 98
2019-08-09 06:00:00 22.7 4 Norte 8 Norte 0 1011 -0.2 96
2019-08-09 05:00:00 22.6 2 Norte 9 Sudoeste 0 1011.2 -0.2 97
2019-08-09 04:00:00 23.2 6 Sur 9 Sur 0 1011 -0.4 97
2019-08-09 03:00:00 23.4 4 Noroeste 9 Norte 0 1011.2 0 97
2019-08-09 02:00:00 23.6 5 Sudoeste 11 Oeste 0 1011.4 0.2 97
2019-08-09 01:00:00 23.9 3 Sudoeste 9 Sudoeste 0 1011.4 1.4 95
2019-08-09 00:00:00 24.3 4 Sur 8 Sur 0 1011.2 1.8 93
2019-08-08 23:00:00 24.5 2 Sudoeste 11 Sur 0 1011.2 1.9 92
2019-08-08 22:00:00 25.1 4 Sur 11 Sur 0 1010 0.5 88
2019-08-08 21:00:00 26.2 8 Sudoeste 13 Sur 0 1009.4 -0.4 83
2019-08-08 20:00:00 31.5 3 Sudeste 13 Sur 0 1009.3 -0.9 38
2019-08-08 19:00:00 31.6 5 Sur 13 Sudoeste 0 1009.5 -1.5 34
2019-08-08 18:00:00 31 8 Sudoeste 13 Sudoeste 0 1009.8 -1.4 47
2019-08-08 17:00:00 30 6 Sur 15 Sur 0 1010.2 -0.9 61
2019-08-08 16:00:00 28.7 8 Sur 17 Sudoeste 0 1011 -0.2 69
2019-08-08 15:00:00 28.2 13 Sur 17 Sudoeste 0 1011.2 -0.1 73
2019-08-08 14:00:00 28.6 10 Sur 15 Sur 0 1011.1 0.2 67
2019-08-08 13:00:00 28.9 12 Sudoeste 17 Sudoeste 0 1011.2 0.7 64
2019-08-08 12:00:00 26.7 9 Sur 15 Sur 0 1011.3 0.9 79
2019-08-08 11:00:00 27.7 8 Sur 13 Sur 0 1010.9 1 63
2019-08-08 10:00:00 26.9 5 Sur 8 Sudoeste 0 1010.5 1 69
2019-08-08 09:00:00 24.9 3 Oeste 9 Noroeste 0 1010.4 1.6 74
2019-08-08 08:00:00 21.7 0 Calma 11 Norte 0 1009.9 0.9 76
2019-08-08 07:00:00 22.4 4 Nordeste 8 Nordeste 0 1009.5 0.7 87
2019-08-08 06:00:00 23.1 6 Noroeste 11 Noroeste 0 1008.8 0.1 90
2019-08-08 05:00:00 23.1 5 Norte 11 Sur 0 1009 0 91
2019-08-08 04:00:00 23.3 2 Sur 9 Sur 0 1008.8 -0.4 91
2019-08-08 03:00:00 23.6 5 Sur 9 Sur 0 1008.7 -1 89
2019-08-08 02:00:00 23.8 4 Este 11 Sudeste 0 1009 -0.5 87
2019-08-08 01:00:00 24.1 7 Nordeste 11 Nordeste 0 1009.2 0.6 85
2019-08-08 00:00:00 24.2 3 Sudeste 5 Sudeste 0 1009.7 2.1 85
2019-08-07 23:00:00 24.3 5 Sur 9 Sur 0 1009.5 2.1 86
2019-08-07 22:00:00 25 10 Sur 13 Sur 0 1008.6 1.6 83
2019-08-07 21:00:00 25.3 5 Sudeste 13 Sudeste 0 1007.6 0.5 80
2019-08-07 20:00:00 26.5 9 Sudeste 21 Sudeste 0 1007.4 0.1 73
2019-08-07 19:00:00 27.8 8 Sur 17 Sur 0 1007 -1.2 63
2019-08-07 18:00:00 29.1 12 Sur 21 Sur 0 1007.1 -1.5 57
2019-08-07 17:00:00 27.9 8 Sudeste 17 Sur 0 1007.3 -1.5 66
2019-08-07 16:00:00 27.6 9 Sudoeste 18 Sur 0 1008.2 -1 65
2019-08-07 15:00:00 27.9 11 Sur 18 Sur 0 1008.6 -0.1 67
2019-08-07 14:00:00 28.1 11 Sur 21 Sur 0 1008.8 0.5 68
2019-08-07 13:00:00 28 15 Sudeste 21 Sudeste 0 1009.2 0.8 71
2019-08-07 12:00:00 27.3 14 Sur 21 Sur 0 1008.7 0.8 75
2019-08-07 11:00:00 26.7 7 Sur 17 Sur 0 1008.3 1.2 73
2019-08-07 10:00:00 25.4 10 Sur 17 Sur 0 1008.4 1.1 83
2019-08-07 09:00:00 25 15 Sudoeste 21 Sur 0 1007.9 0.3 81
2019-08-07 08:00:00 24.2 10 Noroeste 32 Noroeste 0 1007.1 -0.3 78
2019-08-07 07:00:00 22.8 4 Este 17 Sudoeste 0 1007.3 0 85
2019-08-07 06:00:00 23.4 8 Sudoeste 17 Sudoeste 0 1007.6 -0.1 84
2019-08-07 05:00:00 23.8 10 Sudoeste 24 Sudoeste 0 1007.4 0 82
2019-08-07 04:00:00 24 0 Calma 8 Oeste 0 1007.3 -0.8 87
2019-08-07 03:00:00 24.3 6 Sudoeste 9 Sudoeste 0 1007.7 -0.7 90
2019-08-07 02:00:00 24.5 5 Sur 8 Sudoeste 0 1007.4 -1.6 90
2019-08-07 01:00:00 24.8 0 Calma 11 Este 0 1008.1 -0.1 87
2019-08-07 00:00:00 24.9 0 Calma 9 Este 0 1008.4 0.1 85
2019-08-06 23:00:00 25.1 2 Noroeste 15 Sudeste 0 1009 1.3 86
2019-08-06 22:00:00 25.2 2 Este 13 Sur 0 1008.2 1.3 84
2019-08-06 21:00:00 25.9 9 Sur 17 Sur 0 1008.3 0.9 83
2019-08-06 20:00:00 26.9 13 Sur 21 Sur 0 1007.7 -0.1 75
2019-08-06 19:00:00 27.9 9 Sur 17 Sur 0 1006.9 -1.7 70
2019-08-06 18:00:00 28.2 11 Sur 18 Sur 0 1007.4 -2.3 67
2019-08-06 17:00:00 28.7 13 Sur 17 Sur 0 1007.8 -2.2 73
2019-08-06 16:00:00 28.8 12 Sur 18 Sudoeste 0 1008.6 -2.1 73
2019-08-06 15:00:00 28.6 13 Sur 18 Sur 0 1009.7 -1.4 72
2019-08-06 14:00:00 28.1 10 Sur 15 Sur 0 1010 -1.3 72
2019-08-06 13:00:00 27.9 9 Sur 17 Sur 0 1010.7 -0.6 67
2019-08-06 12:00:00 27.2 9 Sur 21 Sudoeste 0 1011.1 0.2 71
2019-08-06 11:00:00 26.6 13 Sur 18 Sur 0 1011.3 0.4 78
2019-08-06 10:00:00 26.4 10 Sur 13 Sur 0 1011.3 0.4 79
2019-08-06 09:00:00 25.2 3 Norte 9 Norte 0 1010.9 0.9 83
2019-08-06 08:00:00 24.1 3 Sudoeste 11 Sur 0 1010.9 1.3 92
2019-08-06 07:00:00 24 10 Sur 18 Sur 0 1010.9 1 93
2019-08-06 06:00:00 24.5 13 Sur 24 Oeste 0 1010 -0.7 88
2019-08-06 05:00:00 25.4 18 Noroeste 26 Noroeste 0 1009.6 -1.5 72
2019-08-06 04:00:00 24.3 6 Noroeste 15 Noroeste 0 1009.9 -1.2 80
2019-08-06 03:00:00 24.4 6 Nordeste 13 Oeste 0 1010.7 -0.5 84
2019-08-06 02:00:00 24.8 9 Oeste 17 Sudoeste 0 1011.1 0 83
2019-08-06 01:00:00 25 10 Sur 13 Sur 0 1011.1 0.3 81
2019-08-06 00:00:00 25 5 Sudoeste 9 Sudoeste 0 1011.2 1.3 81
2019-08-05 23:00:00 25.3 6 Sur 13 Sur 0 1011.1 1.6 80
2019-08-05 22:00:00 25.8 7 Sur 9 Sur 0 1010.8 2.2 74
2019-08-05 21:00:00 26.1 7 Sudeste 15 Sudeste 0 1009.9 0.7 73
2019-08-05 20:00:00 27.2 13 Sur 18 Sur 0 1009.5 -0.2 73
2019-08-05 19:00:00 28.1 10 Sur 13 Sur 0 1008.6 -1.9 67
2019-08-05 18:00:00 28.4 9 Sur 17 Sur 0 1009.2 -1.6 68
2019-08-05 17:00:00 28.7 11 Sur 17 Sudoeste 0 1009.7 -1.3 68
2019-08-05 16:00:00 28.9 12 Sur 18 Sur 0 1010.5 -0.6 62
2019-08-05 15:00:00 28.7 13 Sudoeste 18 Sudoeste 0 1010.8 -0.7 64
2019-08-05 14:00:00 28.9 12 Sur 18 Sur 0 1011 -0.8 60
2019-08-05 13:00:00 28.2 13 Sudoeste 21 Sudoeste 0 1011.1 -0.7 70
2019-08-05 12:00:00 27.9 14 Sur 18 Sudoeste 0 1011.5 -0.2 70
2019-08-05 11:00:00 28.4 9 Sur 13 Sur 0 1011.8 -0.2 66
2019-08-05 10:00:00 27.2 8 Sur 15 Sur 0 1011.8 0.1 71
2019-08-05 09:00:00 25 6 Norte 13 Norte 0 1011.7 0.4 83
2019-08-05 08:00:00 23.6 3 Sudoeste 5 Sudoeste 0 1012 1.3 92
2019-08-05 07:00:00 23.5 3 Sudeste 8 Sudeste 0 1011.7 1.1 92
2019-08-05 06:00:00 23.9 4 Este 13 Sur 0 1011.3 0.7 90
2019-08-05 05:00:00 24.5 9 Sur 15 Sudoeste 0 1010.7 -0.4 86
2019-08-05 04:00:00 25.2 13 Sudoeste 28 Noroeste 0 1010.6 -1.6 77
2019-08-05 03:00:00 25.3 12 Noroeste 21 Norte 0 1010.6 -1.4 73
2019-08-05 02:00:00 25.2 9 Norte 21 Norte 0 1011.1 -1.3 70
2019-08-05 01:00:00 24.4 0 Calma 15 Sur 0 1012.2 1 87
2019-08-05 00:00:00 24.6 7 Sur 11 Sur 0 1012 1.9 81
2019-08-04 23:00:00 24.9 2 Sur 11 Sur 0 1012.4 2.9 82
2019-08-04 22:00:00 25.6 9 Sur 11 Sudoeste 0 1011.2 1.6 79
2019-08-04 21:00:00 26.1 8 Sudoeste 17 Sudoeste 0 1010.1 0 76
2019-08-04 20:00:00 27.5 11 Sudoeste 17 Sudoeste 0 1009.5 -1 71
2019-08-04 19:00:00 28.2 10 Sur 17 Sur 0 1009.6 -1.6 69
2019-08-04 18:00:00 28.6 12 Sudoeste 18 Sur 0 1010.1 -1.5 70
2019-08-04 17:00:00 28.4 11 Sur 18 Sur 0 1010.5 -1.2 70
2019-08-04 16:00:00 28 14 Sudoeste 21 Sur 0 1011.2 -0.9 70
2019-08-04 15:00:00 27.9 14 Sur 21 Sudoeste 0 1011.6 -0.6 73
2019-08-04 14:00:00 28 13 Sur 18 Sudoeste 0 1011.7 -0.6 74
2019-08-04 13:00:00 27.4 13 Sur 18 Sur 0 1012.1 -0.4 78
2019-08-04 12:00:00 26.8 11 Sur 17 Sur 0 1012.2 -0.1 81
2019-08-04 11:00:00 26.4 12 Sur 15 Sur 0 1012.3 0.8 83
2019-08-04 10:00:00 25.7 8 Sur 13 Sur 0 1012.5 1.3 86
2019-08-04 09:00:00 25.5 7 Sur 11 Sur 0 1012.3 2.3 84
2019-08-04 08:00:00 24.5 5 Oeste 9 Oeste 0 1011.5 1.5 87
2019-08-04 07:00:00 24.5 2 Sur 13 Sudeste 0 1011.2 0.5 87
2019-08-04 06:00:00 25.5 8 Este 21 Sudoeste 0 1010 -1.6 78
2019-08-04 05:00:00 26 9 Sudoeste 17 Sur 0 1010 -1.7 79
2019-08-04 04:00:00 26 6 Oeste 15 Oeste 0 1010.7 -1.6 78
2019-08-04 03:00:00 26.1 10 Sudoeste 17 Oeste 0 1011.6 -0.7 80
2019-08-04 02:00:00 26.4 6 Sudoeste 11 Sudoeste 0 1011.7 -0.2 79
2019-08-04 01:00:00 26.3 0 Calma 8 Noroeste 0 1012.3 1.2 80
2019-08-04 00:00:00 26.1 0 Calma 8 Sudeste 0 1012.3 2.3 80
2019-08-03 23:00:00 26.1 4 Sur 11 Sudoeste 0 1011.9 2.2 79
2019-08-03 22:00:00 25.5 8 Sudoeste 13 Sudoeste 0 1011.1 1 86
2019-08-03 21:00:00 26 9 Sudoeste 13 Sudoeste 0 1010 -0.5 84
2019-08-03 20:00:00 27.2 7 Sudoeste 15 Sudoeste 0 1009.7 -1.3 79
2019-08-03 19:00:00 27.4 12 Sudoeste 22 Sudoeste 0 1010.1 -1.3 80
2019-08-03 18:00:00 28.5 18 Sudoeste 24 Sudoeste 0 1010.5 -1.3 75
2019-08-03 17:00:00 28.6 18 Sudoeste 26 Sudoeste 0 1011 -1.2 75
2019-08-03 16:00:00 28.4 19 Sudoeste 26 Sudoeste 0 1011.4 -0.7 75
2019-08-03 15:00:00 28.8 16 Sudoeste 22 Sudoeste 0 1011.8 -0.3 73
2019-08-03 14:00:00 28.4 15 Sudoeste 26 Sudoeste 0 1012.2 -0.4 74
2019-08-03 13:00:00 28.7 16 Sur 22 Sur 0 1012.1 -0.5 69
2019-08-03 12:00:00 28.6 13 Sur 18 Sudoeste 0 1012.1 -0.1 69
2019-08-03 11:00:00 27.5 12 Sudoeste 18 Nordeste 0 1012.6 0.4 74
2019-08-03 10:00:00 27.8 9 Este 18 Este 0 1012.6 0.6 68
2019-08-03 09:00:00 25.8 6 Este 15 Norte 0 1012.2 0.6 75
2019-08-03 08:00:00 23.5 5 Norte 9 Norte 0 1012.2 1.2 92
2019-08-03 07:00:00 23.4 3 Oeste 8 Sudoeste 0 1012 0.8 94
2019-08-03 06:00:00 23.7 4 Sudoeste -- -- 0 1011.6 0.1 93
2019-08-03 05:00:00 23.9 4 Sudoeste 8 Sur 0 1011 -0.6 91
2019-08-03 04:00:00 24.1 6 Sudoeste 11 Sudoeste 0 1011.2 -1 88
2019-08-03 03:00:00 24.6 10 Nordeste 13 Este 0 1011.5 -1 84
2019-08-03 02:00:00 25.5 5 Noroeste 11 Sudoeste 0 1011.6 -0.6 77
2019-08-03 01:00:00 24.7 8 Sudoeste 11 Sudoeste 0 1012.2 0.3 88
2019-08-03 00:00:00 25 4 Sudoeste 8 Sudoeste 0 1012.5 1.3 87
2019-08-02 23:00:00 25.1 0 Calma 8 Este 0 1012.2 1.8 86
2019-08-02 22:00:00 25.1 4 Este 9 Este 0 1011.9 1.8 87
2019-08-02 21:00:00 25.7 6 Sur 13 Sur 0 1011.2 0.6 85
2019-08-02 20:00:00 26.3 9 Sur 15 Sudoeste 0 1010.4 -0.5 82
2019-08-02 19:00:00 27.1 10 Sur 15 Sur 0 1010.1 -1.3 78
2019-08-02 18:00:00 27.5 10 Sur 22 Sudoeste 0 1010.6 -1.5 74
2019-08-02 17:00:00 27.7 17 Sudoeste 22 Sur 0 1010.9 -2.1 73
2019-08-02 16:00:00 28.1 13 Sur 18 Sur 0 1011.4 -1.5 68
2019-08-02 15:00:00 27.3 7 Sur 18 Sur 0 1012.1 -0.3 72
2019-08-02 14:00:00 27.1 14 Sur 21 Sur 0 1013 0.9 75
2019-08-02 13:00:00 26.6 13 Sur 18 Sur 0 1012.9 1.2 77
2019-08-02 12:00:00 26.4 10 Sur 15 Sur 0 1012.4 1.3 77
2019-08-02 11:00:00 25.9 11 Sur 17 Sur 0 1012.1 1.6 80
2019-08-02 10:00:00 25.4 9 Sur 13 Sur 0 1011.7 0.9 82
2019-08-02 09:00:00 24.8 6 Sudeste 9 Sudeste 0 1011.1 0.8 85
2019-08-02 08:00:00 23.3 3 Sudeste 5 Noroeste 0 1010.5 0.7 90
2019-08-02 07:00:00 23 4 Nordeste 11 Este 0 1010.8 0 93
2019-08-02 06:00:00 23.1 7 Sur 17 Sudeste 0 1010.3 -1.2 93
2019-08-02 05:00:00 23.5 4 Sur 8 Noroeste 0 1009.8 -1.4 87
2019-08-02 04:00:00 23.5 5 Norte 8 Norte 0 1010.8 0.2 89
2019-08-02 03:00:00 23.8 2 Sudeste 13 Sur 0 1011.5 0.6 89
2019-08-02 02:00:00 24.2 12 Sudoeste 18 Sur 0 1011.2 0.1 85
2019-08-02 01:00:00 24.9 5 Noroeste 11 Norte 0 1010.6 -0.3 81
2019-08-02 00:00:00 24.9 2 Sur 5 Sudoeste 0 1010.9 1 77
2019-08-01 23:00:00 24.9 2 Sur 9 Oeste 0 1011.1 1.9 77
2019-08-01 22:00:00 24.8 6 Sudoeste 13 Sudoeste 0 1010.9 2.3 80
2019-08-01 21:00:00 25.9 8 Sudoeste 15 Sudoeste 0 1009.9 1 75
2019-08-01 20:00:00 26.8 9 Sudoeste -- -- -- 1009.2 0.1 72
2019-08-01 19:00:00 27.2 10 Sudoeste 17 Sudoeste 0 1008.6 -0.7 70
2019-08-01 18:00:00 27.6 12 Sudoeste 21 Sur 0 1008.9 -1 70
2019-08-01 17:00:00 28.4 14 Sudoeste 21 Sudoeste 0 1009.1 -1.5 64
2019-08-01 16:00:00 28.6 13 Sur 22 Sudoeste 0 1009.3 -1.5 63
2019-08-01 15:00:00 28.4 18 Sudoeste 26 Sudoeste 0 1009.9 -0.6 63
2019-08-01 14:00:00 28.2 18 Sudoeste 30 Sudoeste 0 1010.6 1 62
2019-08-01 13:00:00 28.5 25 Sudoeste 33 Sudoeste 0 1010.8 -0.5 58
2019-08-01 12:00:00 30.7 8 Nordeste 21 Nordeste 0 1010.5 0 41
2019-08-01 11:00:00 28.2 8 Norte 33 Norte 0 1009.6 0.4 52
2019-08-01 10:00:00 26.4 16 Sudoeste 32 Sudoeste 0 1011.3 1.7 63
2019-08-01 09:00:00 25.3 8 Sudeste 17 Oeste 0 1010.5 0.3 67
2019-08-01 08:00:00 25.3 10 Noroeste 17 Oeste 0 1009.2 -0.8 56
2019-08-01 07:00:00 24.2 12 Nordeste 17 Nordeste 0 1009.6 -1.3 63
2019-08-01 06:00:00 24 3 Sudeste 15 Oeste 0 1010.2 -0.4 77
2019-08-01 05:00:00 24.1 11 Norte 15 Norte 0 1010 -0.3 77
2019-08-01 04:00:00 24.4 4 Sur 24 Sudoeste 0 1010.9 1.7 78
2019-08-01 03:00:00 24.3 12 Sudoeste 30 Sudoeste 0 1010.6 1.8 79
2019-08-01 02:00:00 25.3 20 Sudoeste 39 Sudoeste 0 1010.3 1.3 73
2019-08-01 01:00:00 27.5 12 Este 33 Nordeste 0 1009.2 0.7 50
2019-08-01 00:00:00 27.8 21 Nordeste 50 Nordeste 0 1008.8 -0.4 52
2019-07-31 23:00:00 28.1 13 Este 48 Nordeste 0 1009 1.6 52
2019-07-31 22:00:00 27.3 28 Nordeste 58 Este 0 1008.5 1.9 62
2019-07-31 21:00:00 28.9 36 Este 50 Este 0 1009.2 2.1 55
2019-07-31 20:00:00 31.6 39 Este 54 Nordeste 0 1007.4 1 46
2019-07-31 19:00:00 32.8 37 Este 58 Este 0 1006.6 -1.1 46
2019-07-31 18:00:00 32.7 44 Este 68 Este 0 1007.1 -2 48
2019-07-31 17:00:00 34.2 48 Nordeste 63 Nordeste 0 1006.4 -3.1 42
2019-07-31 16:00:00 34.2 44 Nordeste 68 Nordeste 0 1007.7 -2.1 39
2019-07-31 15:00:00 33.4 41 Nordeste 63 Nordeste 0 1009.1 -2 40
2019-07-31 14:00:00 32.8 37 Nordeste 65 Nordeste 0 1009.5 -1.7 41
2019-07-31 13:00:00 31.1 39 Nordeste 71 Nordeste 0 1009.8 -1.3 44
2019-07-31 12:00:00 31.4 40 Nordeste 61 Nordeste 0 1011.1 -0.3 41
2019-07-31 11:00:00 30.7 27 Nordeste 63 Este 0 1011.2 0.7 43
2019-07-31 10:00:00 28.5 16 Este 68 Nordeste 0 1011.1 1.6 50
2019-07-31 09:00:00 26.9 27 Sudeste 39 Este 0 1011.4 3.2 61
2019-07-31 08:00:00 28.3 15 Nordeste 58 Este 0 1010.5 3.4 43
2019-07-31 07:00:00 28.1 23 Este 42 Este 0 1009.5 -0.1 41
2019-07-31 06:00:00 28.3 7 Nordeste 33 Noroeste 0 1008.2 -3.4 45
2019-07-31 05:00:00 26.4 5 Oeste 22 Nordeste 0 1007.1 -4.7 63
2019-07-31 04:00:00 26 7 Norte 22 Norte 0 1009.6 -2.4 69
2019-07-31 03:00:00 25.9 4 Sudeste 13 Norte 0 1011.6 0.8 68
2019-07-31 02:00:00 26.2 6 Nordeste 32 Nordeste 0 1011.8 2 66
2019-07-31 01:00:00 25.7 17 Este 33 Este 0 1012 2.9 76
2019-07-31 00:00:00 26 22 Este 33 Este 0 1010.8 2.2 74
2019-07-30 23:00:00 26.9 21 Este 33 Este 0 1009.8 1.7 59
2019-07-30 22:00:00 26.4 15 Este 22 Este 0 1009.1 0.6 67
2019-07-30 21:00:00 26 11 Sudoeste 18 Sudoeste 0 1008.6 -0.5 79
2019-07-30 20:00:00 27.7 10 Oeste 18 Sudoeste 0 1008.1 -1.2 67
2019-07-30 19:00:00 26.7 11 Sudoeste 17 Sudoeste 0 1008.5 -0.9 73
2019-07-30 18:00:00 27 10 Sudoeste 17 Sudoeste 0 1009.1 -0.6 74
2019-07-30 17:00:00 26.9 13 Sur 21 Sur 0 1009.3 -1.1 76
2019-07-30 16:00:00 27.2 13 Sur 18 Sudeste 0 1009.4 -1.2 75
2019-07-30 15:00:00 27.1 11 Sur 18 Sur 0 1009.7 -0.8 71
2019-07-30 14:00:00 26.9 11 Sur 17 Sur 0 1010.4 0.2 74
2019-07-30 13:00:00 26.7 9 Sur 18 Sur 0 1010.6 0.3 73
2019-07-30 12:00:00 26.7 14 Sur 21 Sudeste 0 1010.5 0.2 70
2019-07-30 11:00:00 26.8 9 Sur 13 Sur 0 1010.2 0.4 65
2019-07-30 10:00:00 26 8 Sur 11 Sur 0 1010.3 0.9 67
2019-07-30 09:00:00 24.8 8 Este 17 Nordeste 0 1010.3 1.1 72
2019-07-30 08:00:00 21.7 12 Nordeste 15 Nordeste 0 1009.8 0.5 90
2019-07-30 07:00:00 21.1 8 Este 15 Nordeste 0 1009.4 0.1 91
2019-07-30 06:00:00 21.4 8 Este 11 Este 0 1009.2 -0.4 90
2019-07-30 05:00:00 21.7 4 Nordeste 9 Este 0 1009.3 0 90
2019-07-30 04:00:00 21.9 4 Este 9 Oeste 0 1009.3 0.2 89
2019-07-30 03:00:00 22.2 9 Sur 15 Sur 0 1009.6 0.4 91
2019-07-30 02:00:00 22.2 6 Sudeste 11 Sudeste 0 1009.3 0.2 90
2019-07-30 01:00:00 22.4 5 Este 8 Este 0 1009.1 1 89
2019-07-30 00:00:00 22.6 4 Sudoeste 11 Sur 0 1009.2 1.6 89
2019-07-29 23:00:00 22.8 9 Sudoeste 15 Sudoeste 0 1009.1 1.6 86
2019-07-29 22:00:00 23.1 8 Sudoeste 13 Sur 0 1008.1 0.6 81
2019-07-29 21:00:00 23.8 5 Sur 13 Sur 0 1007.6 -0.4 76
2019-07-29 20:00:00 24.8 10 Sur 15 Sur 0 1007.5 -0.7 75
2019-07-29 19:00:00 25.2 8 Sudeste 15 Sudeste 0 1007.5 -1.4 74
2019-07-29 18:00:00 25.4 9 Sur 18 Sur 0 1008 -1.3 74
2019-07-29 17:00:00 25.3 10 Sur 18 Sudoeste 0 1008.2 -1.2 74
2019-07-29 16:00:00 25.7 14 Sur 18 Sur 0 1008.9 -1 70
2019-07-29 15:00:00 25.6 14 Sur 21 Sur 0 1009.3 -0.3 72
2019-07-29 14:00:00 25.2 14 Sur 22 Sudoeste 0 1009.4 -0.1 75
2019-07-29 13:00:00 25.5 16 Sudoeste 22 Sudoeste 0 1009.9 0.5 73
2019-07-29 12:00:00 25.5 10 Sur 15 Sur 0 1009.6 0.6 71
2019-07-29 11:00:00 24.4 9 Sudoeste 17 Sur 0 1009.5 1 78
2019-07-29 10:00:00 24.4 10 Sur 13 Sur 0 1009.4 1.2 77
2019-07-29 09:00:00 23.4 5 Este 13 Sudeste 0 1009 0.9 81
2019-07-29 08:00:00 21.6 3 Sudeste 11 Norte 0 1008.5 0.3 86
2019-07-29 07:00:00 20.7 5 Norte 9 Este 0 1008.2 0.1 91
2019-07-29 06:00:00 20.8 5 Este 9 Norte 0 1008.1 -0.1 92
2019-07-29 05:00:00 20.9 8 Nordeste 11 Este 0 1008.2 -0.1 92
2019-07-29 04:00:00 21.1 9 Sudeste 11 Sudeste 0 1008.1 -0.4 89
2019-07-29 03:00:00 21.5 7 Nordeste 9 Norte 0 1008.2 -0.1 89
2019-07-29 02:00:00 21.7 7 Este 9 Este 0 1008.3 0.1 89
2019-07-29 01:00:00 22.2 9 Este 13 Este 0 1008.5 1.2 87
2019-07-29 00:00:00 22.3 6 Este 9 Este 0 1008.3 1.6 86
2019-07-28 23:00:00 22.4 5 Sudeste 13 Sudeste 0 1008.2 1.9 88
2019-07-28 22:00:00 23 9 Sudeste 13 Sudeste 0 1007.3 1.1 84
2019-07-28 21:00:00 24.6 10 Sudeste 13 Sudeste 0 1006.7 0.2 79
2019-07-28 20:00:00 25.5 9 Sudeste 13 Sur 0 1006.3 -0.4 72
2019-07-28 19:00:00 26.1 8 Sudeste 15 Sudeste 0 1006.2 -1 66
2019-07-28 18:00:00 25.4 12 Sudeste 17 Sudeste 0 1006.5 -0.9 73
2019-07-28 17:00:00 26 10 Sudeste 17 Sudeste 0 1006.7 -1.1 72
2019-07-28 16:00:00 25.7 10 Sudeste 18 Sur 0 1007.2 -0.9 73
2019-07-28 15:00:00 25.4 12 Sur 18 Sur 0 1007.4 -0.7 74
2019-07-28 14:00:00 25.4 10 Sur 18 Sur 0 1007.8 -0.2 74
2019-07-28 13:00:00 25.2 13 Sur 24 Sudeste 0 1008.1 0.4 75
2019-07-28 12:00:00 25.1 16 Sudeste 22 Sudeste 0 1008.1 0.6 74
2019-07-28 11:00:00 24.9 15 Sudeste 21 Sudeste 0 1008 0.8 75
2019-07-28 10:00:00 24.9 12 Sudeste 18 Sudeste 0 1007.7 1 76
2019-07-28 09:00:00 23.5 5 Este 11 Este 0 1007.5 1.2 79
2019-07-28 08:00:00 21.3 9 Nordeste 15 Nordeste 0 1007.2 1.2 88
2019-07-28 07:00:00 21 12 Nordeste 15 Este 0 1006.7 0.7 89
2019-07-28 06:00:00 21.1 12 Nordeste 17 Nordeste 0 1006.3 -0.1 87
2019-07-28 05:00:00 20.9 9 Nordeste 13 Nordeste 0 1006 -0.7 87
2019-07-28 04:00:00 21.5 9 Nordeste 13 Nordeste 0 1006 -0.5 85
2019-07-28 03:00:00 21.3 9 Este 13 Este 0 1006.4 0.2 85
2019-07-28 02:00:00 21.4 7 Este 9 Este 0 1006.7 1.2 83
2019-07-28 01:00:00 22 2 Sudeste 13 Sudoeste 0 1006.5 1.9 81
2019-07-28 00:00:00 22.4 9 Sudoeste 15 Sudoeste 0 1006.2 2.7 80
2019-07-27 23:00:00 22.8 9 Sudoeste 18 Oeste 0 1005.5 2.9 78
2019-07-26 12:00:00 27.2 21 Sudoeste 28 Sur 0 1009.3 0.1 78
2019-07-26 11:00:00 26.3 13 Sur 18 Sudoeste 0 1009.4 0.3 80
2019-07-26 10:00:00 25.4 12 Sur 17 Sur 0 1009.4 0.3 80
2019-07-26 09:00:00 24.6 10 Sudoeste 17 Sudoeste 0 1009.2 -0.1 83
2019-07-26 08:00:00 23.3 6 Sudoeste 18 Sudoeste 0 1009.1 -0.3 89
2019-07-26 07:00:00 23.2 12 Sudoeste 17 Oeste 0 1009.1 -0.5 91
2019-07-26 06:00:00 23.7 8 Oeste 17 Sudoeste 0 1009.3 -0.7 93
2019-07-26 05:00:00 23.8 10 Sudoeste 17 Oeste 0 1009.4 -1.4 94
2019-07-26 04:00:00 23.2 9 Sudoeste 11 Sudoeste 0 1009.6 -1.9 79
2019-07-26 03:00:00 24.1 4 Nordeste 11 Norte 0 1010 -1.5 77
2019-07-26 02:00:00 24.8 3 Oeste 11 Sudoeste 0 1010.8 -0.4 74
2019-07-26 01:00:00 25.2 12 Sudoeste 18 Sudoeste 0 1011.5 0.9 76
2019-07-26 00:00:00 25.3 4 Sur 13 Sudoeste 0 1011.5 1.6 81
2019-07-25 23:00:00 25.7 3 Sur 11 Sur 0 1011.2 1.5 81
2019-07-25 22:00:00 26.1 5 Sudeste 8 Sudeste 0 1010.6 0.8 80
2019-07-25 21:00:00 27.1 4 Sudeste 11 Sur 0 1009.9 -0.2 72
2019-07-25 20:00:00 28 7 Sur 17 Sudoeste 0 1009.7 -0.9 70
2019-07-25 19:00:00 28.2 13 Sudoeste 21 Sudoeste 0 1009.8 -1.3 70
2019-07-25 18:00:00 29 15 Sudoeste 21 Sudoeste 0 1010.1 -1.1 69
2019-07-25 17:00:00 29.2 14 Sudoeste 24 Sudoeste 0 1010.6 -0.8 68
2019-07-25 16:00:00 29.2 18 Sudoeste 26 Sur 0 1011.1 -0.4 70
2019-07-25 15:00:00 30.6 15 Sur 24 Sur 0 1011.2 -0.6 54
2019-07-25 14:00:00 29.4 15 Sudoeste 24 Sudoeste 0 1011.4 -0.5 68
2019-07-25 13:00:00 28.3 15 Sur 24 Sur 0 1011.5 -0.4 75
2019-07-25 12:00:00 27.7 14 Sur 18 Sur 0 1011.8 0.2 77
2019-07-25 11:00:00 26.9 12 Sur 17 Sudoeste 0 1011.9 1.3 79
2019-07-25 10:00:00 26.7 13 Sudoeste 21 Sudoeste 0 1011.9 1.6 79
2019-07-25 09:00:00 25.9 9 Sur 15 Sudeste 0 1011.6 1.4 82
2019-07-25 08:00:00 24.6 6 Nordeste 9 Nordeste 0 1010.6 0.5 47
2019-07-25 07:00:00 24.5 5 Nordeste 11 Este 0 1010.3 0.4 72
2019-07-25 06:00:00 25.4 4 Noroeste 26 Oeste 0 1010.2 -0.2 73
2019-07-25 05:00:00 28 17 Noroeste 26 Noroeste 0 1010.1 -1.2 33
2019-07-25 04:00:00 26.6 11 Norte 18 Norte 0 1009.9 -1.6 43
2019-07-25 03:00:00 25.7 6 Norte 13 Este 0 1010.4 -1.6 63
2019-07-25 02:00:00 26.6 3 Norte 13 Nordeste 0 1011.3 0.1 58
2019-07-25 01:00:00 26.9 6 Norte 15 Oeste 0 1011.5 1.2 67
2019-07-25 00:00:00 27.4 12 Oeste 18 Sudoeste 0 1012 2.2 68
2019-07-24 23:00:00 29.6 11 Este 21 Este 0 1011.2 1.7 43
2019-07-24 22:00:00 31 13 Este 30 Nordeste 0 1010.3 0.6 41
2019-07-24 21:00:00 33.4 21 Este 32 Este 0 1009.8 -0.4 34
2019-07-24 20:00:00 35.4 23 Este 37 Este 0 1009.5 -1.1 31
2019-07-24 19:00:00 31.2 13 Sudoeste 21 Sur 0 1009.7 -1.1 56
2019-07-24 18:00:00 30.8 14 Sudoeste 26 Sudoeste 0 1010.2 -0.9 57
2019-07-24 17:00:00 31.3 18 Sudoeste 30 Sudoeste 0 1010.6 -1.3 53
2019-07-24 16:00:00 30 22 Sudoeste 32 Sudoeste 0 1010.8 -1.8 63
2019-07-24 15:00:00 30.9 17 Sudoeste 22 Sudoeste 0 1011.1 -1.4 55
2019-07-24 14:00:00 29.6 10 Sur 21 Sudoeste 0 1011.9 -0.6 54
2019-07-24 13:00:00 28.9 7 Sur 21 Sudoeste 0 1012.6 0.2 62
2019-07-24 12:00:00 28.4 12 Sur 24 Sur 0 1012.5 0.5 65
2019-07-24 11:00:00 28.3 15 Sudoeste 22 Sudoeste 0 1012.5 1.4 62
2019-07-24 10:00:00 28.8 12 Sudoeste 26 Sudoeste 0 1012.4 2.1 55
2019-07-24 09:00:00 27.9 19 Sudoeste 39 Oeste 0 1012 1.9 54
2019-07-24 08:00:00 27.2 11 Sudoeste 35 Noroeste 0 1011.1 0.5 55
2019-07-24 07:00:00 29.4 23 Noroeste 33 Noroeste 0 1010.3 -1.1 27
2019-07-24 06:00:00 29 24 Noroeste 35 Noroeste 0 1010.1 -1.6 29
2019-07-24 05:00:00 28.9 23 Noroeste 35 Noroeste 0 1010.6 -1.8 31
2019-07-24 04:00:00 29.1 15 Noroeste 28 Noroeste 0 1011.4 -1.1 32
2019-07-24 03:00:00 28.9 13 Noroeste 22 Noroeste 0 1011.7 -1.2 36
2019-07-24 02:00:00 28.9 12 Norte 21 Nordeste 0 1012.4 -0.4 39
2019-07-24 01:00:00 26.7 10 Norte 13 Norte 0 1012.5 0.8 59
2019-07-24 00:00:00 25.1 6 Este 13 Sudoeste 0 1012.9 2 79
2019-07-23 23:00:00 25.6 10 Sudoeste 18 Sudoeste 0 1012.8 2.3 81
2019-07-23 22:00:00 26 10 Sudoeste 17 Sudoeste 0 1011.7 1.2 80
2019-07-23 21:00:00 26.9 10 Sudoeste 22 Sudoeste 0 1010.9 -0.1 76
2019-07-23 20:00:00 27.6 14 Sudoeste 24 Sudoeste 0 1010.5 -0.6 72
2019-07-23 19:00:00 29.8 17 Sudoeste 32 Sudoeste 0 1010.5 -0.5 61
2019-07-23 18:00:00 31.6 28 Sudoeste 39 Sudoeste 0 1011 -0.2 52
2019-07-23 17:00:00 40.1 29 Este 48 Este 0 1011.1 -0.5 19
2019-07-23 16:00:00 39.2 36 Este 55 Este 0 1011 -1.4 19
2019-07-23 15:00:00 38.6 39 Nordeste 52 Nordeste 0 1011.2 -1.5 19
2019-07-23 14:00:00 39.2 42 Este 54 Este 0 1011.6 -1.4 15
2019-07-23 13:00:00 39.1 26 Este 41 Nordeste 0 1012.4 -0.8 15
2019-07-23 12:00:00 37.2 25 Nordeste 48 Nordeste 0 1012.7 -0.4 15
2019-07-23 11:00:00 36.3 25 Este 33 Nordeste 0 1013 0.6 16
2019-07-23 10:00:00 28.3 6 Sur 18 Sudoeste 0 1013.2 1 64
2019-07-23 09:00:00 27.6 6 Sudoeste 30 Noroeste 0 1013.1 1.1 70
2019-07-23 08:00:00 30 17 Norte 33 Noroeste 0 1012.4 -0.1 28
2019-07-23 07:00:00 30.1 18 Noroeste 32 Noroeste 0 1012.2 -0.5 29
2019-07-23 06:00:00 29.6 16 Noroeste 30 Noroeste 0 1012 -1.3 33
2019-07-23 05:00:00 29.6 16 Norte 26 Norte 0 1012.5 -1.2 36
2019-07-23 04:00:00 29.6 15 Noroeste 26 Noroeste 0 1012.7 -1.8 38
2019-07-23 03:00:00 30.5 13 Noroeste 35 Noroeste 0 1013.3 -1.2 36
2019-07-23 02:00:00 30.5 19 Noroeste 33 Noroeste 0 1013.7 -0.4 40
2019-07-23 01:00:00 31 13 Noroeste 22 Noroeste 0 1014.5 0.9 36
2019-07-23 00:00:00 31.9 13 Norte 26 Este 0 1014.5 2 28
2019-07-22 23:00:00 31.9 19 Nordeste 42 Nordeste 0 1014.1 2.4 29
2019-07-22 22:00:00 32.1 25 Nordeste 65 Nordeste 0 1013.6 1.9 32
2019-07-22 21:00:00 32.1 45 Nordeste 67 Nordeste 0 1012.5 0.2 41
2019-07-22 20:00:00 33.6 51 Nordeste 67 Nordeste 0 1011.7 -1.4 38
2019-07-22 19:00:00 34.5 38 Nordeste 59 Nordeste 0 1011.7 -1.6 43
2019-07-22 18:00:00 35.3 40 Nordeste 58 Nordeste 0 1012.3 -1.6 42
2019-07-22 17:00:00 34.8 45 Nordeste 63 Nordeste 0 1013.1 -1.5 44
2019-07-22 16:00:00 35.7 48 Nordeste 63 Nordeste 0 1013.3 -1.9 40
2019-07-22 15:00:00 36 42 Este 55 Este 0 1013.9 -1.7 39
2019-07-22 14:00:00 35.9 36 Este 61 Este 0 1014.6 -1.1 36
2019-07-22 13:00:00 35.7 40 Este 58 Este 0 1015.2 -0.6 27
2019-07-22 12:00:00 34.5 40 Este 58 Este 0 1015.6 -0.7 30
2019-07-22 11:00:00 33.2 36 Este 50 Este 0 1015.7 -0.6 32
2019-07-22 10:00:00 31.9 29 Este 45 Este 0 1015.8 0 33
2019-07-22 09:00:00 27.8 6 Norte 11 Norte 0 1016.3 0.9 63
2019-07-22 08:00:00 24.5 5 Nordeste 15 Noroeste 0 1016.3 1.6 81
2019-07-22 07:00:00 24.3 4 Noroeste 13 Oeste 0 1015.8 1 86
2019-07-22 06:00:00 24.4 7 Oeste 22 Sudoeste 0 1015.4 -0.1 87
2019-07-22 05:00:00 25.4 3 Nordeste 9 Sudeste 0 1014.7 -1.2 75
2019-07-22 04:00:00 25.2 6 Este 11 Nordeste 0 1014.8 -0.4 81
2019-07-22 03:00:00 25.5 6 Oeste -- -- -- 1015.5 1.2 82
2019-07-22 02:00:00 25.6 12 Sudoeste 32 Sudoeste 0 1015.9 0.5 83
2019-07-22 01:00:00 29.7 18 Noroeste 46 Noroeste 0 1015.2 -0.6 53
2019-07-22 00:00:00 28.4 12 Noroeste 32 Noroeste 0 1014.3 -1.1 62
2019-07-21 23:00:00 27.9 15 Nordeste 45 Este 0 1015.4 1.7 70
2019-07-21 22:00:00 27.6 28 Este 45 Este 0 1015.8 3.2 76
2019-07-21 21:00:00 28.6 30 Este 45 Este 0 1015.4 2.2 70
2019-07-21 20:00:00 31 32 Este 50 Este 0 1013.7 0.1 60
2019-07-21 19:00:00 31.9 20 Este 39 Sur 0 1012.6 -1.3 56
2019-07-21 18:00:00 29.9 17 Sur 33 Sur 0 1013.2 -1 62
2019-07-21 17:00:00 30.4 15 Sur 26 Sur 0 1013.6 -0.9 61
2019-07-21 16:00:00 30.6 17 Sur 32 Sudoeste 0 1013.9 -0.8 60
2019-07-21 15:00:00 30.2 17 Sudoeste 37 Sudoeste 0 1014.2 -0.4 58
2019-07-21 14:00:00 29.8 21 Sudoeste 30 Sur 0 1014.5 -0.2 60
2019-07-21 13:00:00 29.1 22 Sudoeste 28 Sudoeste 0 1014.7 0 63
2019-07-21 12:00:00 28.9 17 Sudoeste 24 Sudoeste 0 1014.6 0.5 62
2019-07-21 11:00:00 27.1 20 Sudoeste 26 Sudoeste 0 1014.7 0.9 67
2019-07-21 10:00:00 27.4 6 Sur 9 Sudeste 0 1014.7 1.5 64
2019-07-21 09:00:00 26.6 6 Sudeste 11 Norte 0 1014.1 0.6 65
2019-07-21 08:00:00 24.2 3 Oeste 9 Noroeste 0 1013.8 1.1 73
2019-07-21 07:00:00 23.9 4 Norte 13 Norte 0 1013.2 -0.1 74
2019-07-21 06:00:00 23.3 5 Este 11 Nordeste 0 1013.5 -0.3 81
2019-07-21 05:00:00 23.8 7 Nordeste 9 Nordeste 0 1012.7 -0.7 75
2019-07-21 04:00:00 24.3 3 Sudeste 5 Sudeste 0 1013.3 0.3 75
2019-07-21 03:00:00 24.3 0 Calma -- -- -- 1013.8 1 78
2019-07-21 02:00:00 24.5 7 Sudoeste 11 Oeste 0 1013.4 1.1 79
2019-07-21 01:00:00 24.7 2 Sur 8 Sudoeste 0 1013 1.3 81
2019-07-21 00:00:00 24.8 8 Sudoeste 15 Sudoeste 0 1012.8 1.2 85
2019-07-20 23:00:00 26.4 4 Sur 11 Oeste 0 1012.3 1.2 72
2019-07-20 22:00:00 26.7 2 Oeste 8 Oeste 0 1011.7 1.7 65
2019-07-20 21:00:00 26.4 6 Sudoeste 21 Sudoeste 0 1011.6 1.5 70
2019-07-20 20:00:00 27 17 Sudoeste 30 Sudoeste 0 1011.1 0.6 70
2019-07-20 19:00:00 28.4 22 Sudoeste 28 Sudoeste 0 1010 -1 63
2019-07-20 18:00:00 29 22 Sudoeste 30 Sudoeste 0 1010.1 -1.1 64
2019-07-20 17:00:00 29.1 21 Sudoeste 26 Sudoeste 0 1010.5 -0.7 66
2019-07-20 16:00:00 28.9 14 Sur 26 Sudoeste 0 1011 -0.3 64
2019-07-20 15:00:00 29.2 18 Sudoeste 28 Sudoeste 0 1011.2 0.2 64
2019-07-20 14:00:00 29.1 18 Sudoeste 24 Sudoeste 0 1011.2 0.7 62
2019-07-20 13:00:00 27.9 14 Sudoeste 26 Sudoeste 0 1011.3 1.1 70
2019-07-20 12:00:00 26.9 12 Sudoeste 18 Sudoeste 0 1011 0.9 75
2019-07-20 11:00:00 26.8 9 Sur 13 Sur 0 1010.5 1 74
2019-07-20 10:00:00 26.1 6 Sur 13 Sur 0 1010.2 1.8 76
2019-07-20 09:00:00 24.9 4 Sudoeste 11 Sudoeste 0 1010.1 2 82
2019-07-20 08:00:00 23.9 5 Sur 22 Noroeste 0 1009.5 1.5 86
2019-07-20 07:00:00 29.7 13 Noroeste 30 Noroeste 0 1008.4 0.5 32
2019-07-20 06:00:00 29.8 22 Noroeste 33 Noroeste 0 1008.1 -0.5 33
2019-07-20 05:00:00 29.6 20 Noroeste 39 Noroeste 0 1008 -1.7 35
2019-07-20 04:00:00 29.8 24 Noroeste 41 Noroeste 0 1007.9 -2.1 37
2019-07-20 03:00:00 29.5 19 Noroeste -- -- -- 1008.6 -1.8 38
2019-07-20 02:00:00 28.8 6 Norte 21 Norte 0 1009.7 0 43
2019-07-20 01:00:00 27.6 13 Norte 21 Noroeste 0 1010 1.6 52
2019-07-20 00:00:00 26.5 12 Sudoeste 22 Sudoeste 0 1010.4 3.3 64
2019-07-19 23:00:00 29.9 17 Este 37 Nordeste 0 1009.7 3 44
2019-07-19 22:00:00 31.3 28 Este 52 Nordeste 0 1008.4 1.5 37
2019-07-19 21:00:00 33.1 38 Nordeste 61 Nordeste 0 1007.1 -0.7 30
2019-07-19 20:00:00 34.2 41 Nordeste 55 Nordeste 0 1006.7 -1.7 28
2019-07-19 19:00:00 35.3 39 Nordeste 55 Nordeste 0 1006.9 -2.1 27
2019-07-19 18:00:00 35.4 43 Este 58 Este 0 1007.8 -1.9 27
2019-07-19 17:00:00 36 42 Este 58 Este 0 1008.4 -1.9 27
2019-07-19 16:00:00 36.5 44 Este 58 Este 0 1009 -1.7 25
2019-07-19 15:00:00 36.5 40 Este 58 Este 0 1009.7 -1.1 23
2019-07-19 14:00:00 36.5 40 Este 55 Nordeste 0 1010.3 -1 19
2019-07-19 13:00:00 36.2 35 Este 50 Este 0 1010.7 -0.4 18
2019-07-19 12:00:00 35.5 33 Este 46 Este 0 1010.8 -0.4 18
2019-07-19 11:00:00 33.9 24 Este 33 Este 0 1011.3 0 21
2019-07-19 10:00:00 31.3 9 Norte 24 Noroeste 0 1011.1 -0.4 29
2019-07-19 09:00:00 27.2 18 Noroeste 30 Norte 0 1011.2 0 40
2019-07-19 08:00:00 24.3 15 Noroeste 24 Norte 0 1011.3 0 50
2019-07-19 07:00:00 22.4 12 Noroeste 13 Norte 0 1011.5 0.2 59
2019-07-19 06:00:00 22.8 10 Norte 13 Norte 0 1011.2 -0.5 54
2019-07-19 05:00:00 23.1 5 Nordeste 13 Nordeste 0 1011.3 -0.6 59
2019-07-19 04:00:00 23.1 9 Nordeste 13 Nordeste 0 1011.3 -0.5 63
2019-07-19 03:00:00 23.5 10 Nordeste -- -- -- 1011.7 -0.3 60
2019-07-19 02:00:00 24.1 8 Este 13 Este 0 1011.9 0 65
2019-07-19 01:00:00 24.4 9 Nordeste 15 Nordeste 0 1011.8 0.6 71
2019-07-19 00:00:00 24.4 9 Nordeste 13 Este 0 1012 0.7 75